sensor_id;sensor_type;location;lat;lon;timestamp;pressure;altitude;pressure_sealevel;temperature;humidity
70314;BME280;71040;47.526;18.986;2023-11-21T00:04:18;99287.50;;;10.72;78.42
70314;BME280;71040;47.526;18.986;2023-11-21T00:09:18;99291.94;;;10.70;78.83
70314;BME280;71040;47.526;18.986;2023-11-21T00:14:20;99296.34;;;10.69;78.83
70314;BME280;71040;47.526;18.986;2023-11-21T00:19:20;99286.94;;;10.65;78.75
70314;BME280;71040;47.526;18.986;2023-11-21T00:24:20;99291.75;;;11.21;77.34
70314;BME280;71040;47.526;18.986;2023-11-21T00:29:21;99291.50;;;11.57;75.75
70314;BME280;71040;47.526;18.986;2023-11-21T00:34:21;99304.19;;;11.34;76.53
70314;BME280;71040;47.526;18.986;2023-11-21T00:39:24;99301.97;;;11.10;77.35
70314;BME280;71040;47.526;18.986;2023-11-21T00:44:26;99309.97;;;10.92;77.74
70314;BME280;71040;47.526;18.986;2023-11-21T00:49:26;99322.59;;;10.83;78.03
70314;BME280;71040;47.526;18.986;2023-11-21T00:54:28;99317.94;;;10.73;78.20
70314;BME280;71040;47.526;18.986;2023-11-21T00:59:28;99314.63;;;10.69;78.36
70314;BME280;71040;47.526;18.986;2023-11-21T01:04:29;99320.00;;;10.66;78.51
70314;BME280;71040;47.526;18.986;2023-11-21T01:09:31;99307.16;;;10.62;78.60
70314;BME280;71040;47.526;18.986;2023-11-21T01:14:32;99302.13;;;10.59;78.73
70314;BME280;71040;47.526;18.986;2023-11-21T01:19:32;99307.47;;;11.06;77.72
70314;BME280;71040;47.526;18.986;2023-11-21T01:24:33;99291.91;;;11.97;74.76
70314;BME280;71040;47.526;18.986;2023-11-21T01:29:33;99285.97;;;12.53;72.83
70314;BME280;71040;47.526;18.986;2023-11-21T01:34:34;99276.31;;;12.96;71.81
70314;BME280;71040;47.526;18.986;2023-11-21T01:39:35;99280.34;;;13.02;71.21
70314;BME280;71040;47.526;18.986;2023-11-21T01:44:38;99286.09;;;12.36;73.19
70314;BME280;71040;47.526;18.986;2023-11-21T01:49:39;99279.59;;;11.83;75.04
70314;BME280;71040;47.526;18.986;2023-11-21T01:54:40;99281.72;;;11.45;76.01
70314;BME280;71040;47.526;18.986;2023-11-21T01:59:41;99272.59;;;11.21;76.89
70314;BME280;71040;47.526;18.986;2023-11-21T02:04:42;99270.00;;;11.05;77.10
70314;BME280;71040;47.526;18.986;2023-11-21T02:09:43;99267.13;;;10.94;77.73
70314;BME280;71040;47.526;18.986;2023-11-21T02:14:43;99259.94;;;10.82;78.05
70314;BME280;71040;47.526;18.986;2023-11-21T02:19:44;99263.53;;;10.79;77.95
70314;BME280;71040;47.526;18.986;2023-11-21T02:24:47;99259.47;;;10.74;78.29
70314;BME280;71040;47.526;18.986;2023-11-21T02:29:47;99248.50;;;10.67;78.52
70314;BME280;71040;47.526;18.986;2023-11-21T02:34:48;99241.75;;;10.63;78.39
70314;BME280;71040;47.526;18.986;2023-11-21T02:39:50;99244.53;;;10.60;78.48
70314;BME280;71040;47.526;18.986;2023-11-21T02:44:51;99248.06;;;10.59;78.66
70314;BME280;71040;47.526;18.986;2023-11-21T02:49:51;99246.31;;;10.60;78.69
70314;BME280;71040;47.526;18.986;2023-11-21T02:54:52;99243.66;;;11.40;76.27
70314;BME280;71040;47.526;18.986;2023-11-21T02:59:53;99234.53;;;12.22;73.90
70314;BME280;71040;47.526;18.986;2023-11-21T03:04:56;99229.31;;;12.79;72.15
70314;BME280;71040;47.526;18.986;2023-11-21T03:09:56;99203.31;;;13.03;71.33
70314;BME280;71040;47.526;18.986;2023-11-21T03:14:57;99209.16;;;13.35;70.55
70314;BME280;71040;47.526;18.986;2023-11-21T03:19:58;99204.50;;;13.12;71.01
70314;BME280;71040;47.526;18.986;2023-11-21T03:24:58;99196.72;;;12.41;73.40
70314;BME280;71040;47.526;18.986;2023-11-21T03:29:58;99198.97;;;11.88;74.81
70314;BME280;71040;47.526;18.986;2023-11-21T03:34:59;99195.84;;;11.52;76.18
70314;BME280;71040;47.526;18.986;2023-11-21T03:40:00;99191.09;;;11.29;77.00
70314;BME280;71040;47.526;18.986;2023-11-21T03:45:00;99189.47;;;11.10;77.51
70314;BME280;71040;47.526;18.986;2023-11-21T03:50:03;99172.69;;;10.99;77.54
70314;BME280;71040;47.526;18.986;2023-11-21T03:55:04;99183.66;;;10.89;78.04
70314;BME280;71040;47.526;18.986;2023-11-21T04:00:08;99197.25;;;10.80;78.01
70314;BME280;71040;47.526;18.986;2023-11-21T04:05:10;99195.81;;;10.75;78.14
70314;BME280;71040;47.526;18.986;2023-11-21T04:10:10;99193.44;;;10.70;78.41
70314;BME280;71040;47.526;18.986;2023-11-21T04:15:13;99211.91;;;10.67;78.60
70314;BME280;71040;47.526;18.986;2023-11-21T04:20:16;99226.13;;;10.62;78.82
70314;BME280;71040;47.526;18.986;2023-11-21T04:25:17;99234.16;;;10.59;78.51
70314;BME280;71040;47.526;18.986;2023-11-21T04:30:26;99231.63;;;10.57;78.77
70314;BME280;71040;47.526;18.986;2023-11-21T04:35:26;99228.31;;;10.53;78.81
70314;BME280;71040;47.526;18.986;2023-11-21T04:40:27;99232.09;;;11.12;77.29
70314;BME280;71040;47.526;18.986;2023-11-21T04:45:29;99228.19;;;11.96;74.64
70314;BME280;71040;47.526;18.986;2023-11-21T04:50:30;99236.06;;;12.55;72.91
70314;BME280;71040;47.526;18.986;2023-11-21T04:55:30;99240.50;;;12.95;71.57
70314;BME280;71040;47.526;18.986;2023-11-21T05:00:33;99237.22;;;13.20;70.97
70314;BME280;71040;47.526;18.986;2023-11-21T05:05:33;99243.72;;;13.41;70.42
70314;BME280;71040;47.526;18.986;2023-11-21T05:10:34;99249.97;;;13.53;70.19
70314;BME280;71040;47.526;18.986;2023-11-21T05:15:35;99240.34;;;13.66;69.81
70314;BME280;71040;47.526;18.986;2023-11-21T05:20:38;99234.41;;;13.77;69.83
70314;BME280;71040;47.526;18.986;2023-11-21T05:25:38;99217.09;;;13.87;69.46
70314;BME280;71040;47.526;18.986;2023-11-21T05:30:39;99220.94;;;13.69;69.83
70314;BME280;71040;47.526;18.986;2023-11-21T05:35:41;99238.19;;;12.91;72.40
70314;BME280;71040;47.526;18.986;2023-11-21T05:40:42;99223.66;;;12.28;74.36
70314;BME280;71040;47.526;18.986;2023-11-21T05:45:44;99232.28;;;11.86;75.52
70314;BME280;71040;47.526;18.986;2023-11-21T05:50:54;99234.00;;;11.56;76.64
70314;BME280;71040;47.526;18.986;2023-11-21T05:55:54;99248.97;;;11.38;77.03
70314;BME280;71040;47.526;18.986;2023-11-21T06:00:54;99259.34;;;11.24;77.38
70314;BME280;71040;47.526;18.986;2023-11-21T06:05:55;99282.72;;;11.11;78.00
70314;BME280;71040;47.526;18.986;2023-11-21T06:10:55;99283.31;;;11.01;78.19
70314;BME280;71040;47.526;18.986;2023-11-21T06:15:55;99290.56;;;10.96;78.56
70314;BME280;71040;47.526;18.986;2023-11-21T06:20:56;99296.19;;;10.88;78.33
70314;BME280;71040;47.526;18.986;2023-11-21T06:25:56;99307.00;;;10.82;78.71
70314;BME280;71040;47.526;18.986;2023-11-21T06:30:57;99325.53;;;10.77;78.84
70314;BME280;71040;47.526;18.986;2023-11-21T06:35:58;99336.25;;;10.73;79.17
70314;BME280;71040;47.526;18.986;2023-11-21T06:40:58;99330.25;;;10.71;79.10
70314;BME280;71040;47.526;18.986;2023-11-21T06:46:02;99337.31;;;10.69;79.02
70314;BME280;71040;47.526;18.986;2023-11-21T06:51:04;99339.22;;;10.65;78.88
70314;BME280;71040;47.526;18.986;2023-11-21T06:56:18;99342.00;;;10.62;78.97
70314;BME280;71040;47.526;18.986;2023-11-21T07:01:19;99336.03;;;10.60;78.97
70314;BME280;71040;47.526;18.986;2023-11-21T07:06:19;99336.09;;;10.59;79.20
70314;BME280;71040;47.526;18.986;2023-11-21T07:11:19;99341.47;;;10.56;79.49
70314;BME280;71040;47.526;18.986;2023-11-21T07:16:20;99348.69;;;10.50;79.54
70314;BME280;71040;47.526;18.986;2023-11-21T07:21:23;99347.84;;;10.50;79.31
70314;BME280;71040;47.526;18.986;2023-11-21T07:26:24;99348.94;;;10.46;79.49
70314;BME280;71040;47.526;18.986;2023-11-21T07:31:26;99356.78;;;10.46;79.53
70314;BME280;71040;47.526;18.986;2023-11-21T07:36:27;99367.31;;;10.44;79.71
70314;BME280;71040;47.526;18.986;2023-11-21T07:41:27;99353.00;;;10.51;79.45
70314;BME280;71040;47.526;18.986;2023-11-21T07:46:29;99353.47;;;11.25;77.55
70314;BME280;71040;47.526;18.986;2023-11-21T07:51:30;99352.47;;;12.07;74.82
70314;BME280;71040;47.526;18.986;2023-11-21T07:56:30;99345.78;;;12.61;73.20
70314;BME280;71040;47.526;18.986;2023-11-21T08:01:30;99348.84;;;12.97;72.07
70314;BME280;71040;47.526;18.986;2023-11-21T08:06:33;99351.78;;;13.21;71.44
70314;BME280;71040;47.526;18.986;2023-11-21T08:11:33;99348.78;;;12.55;73.44
70314;BME280;71040;47.526;18.986;2023-11-21T08:16:39;99354.88;;;11.95;75.32
70314;BME280;71040;47.526;18.986;2023-11-21T08:21:42;99348.53;;;11.52;76.80
70314;BME280;71040;47.526;18.986;2023-11-21T08:26:42;99350.00;;;11.25;77.46
70314;BME280;71040;47.526;18.986;2023-11-21T08:31:43;99343.25;;;11.05;78.27
70314;BME280;71040;47.526;18.986;2023-11-21T08:36:46;99346.50;;;10.93;78.98
70314;BME280;71040;47.526;18.986;2023-11-21T08:41:50;99343.53;;;10.83;79.29
70314;BME280;71040;47.526;18.986;2023-11-21T08:46:50;99330.91;;;10.74;79.13
70314;BME280;71040;47.526;18.986;2023-11-21T08:51:51;99331.09;;;10.71;79.26
70314;BME280;71040;47.526;18.986;2023-11-21T08:56:52;99346.16;;;10.66;80.08
70314;BME280;71040;47.526;18.986;2023-11-21T09:01:55;99340.16;;;10.64;79.80
70314;BME280;71040;47.526;18.986;2023-11-21T09:06:55;99337.72;;;10.61;79.71
70314;BME280;71040;47.526;18.986;2023-11-21T09:11:56;99335.25;;;10.58;80.02
70314;BME280;71040;47.526;18.986;2023-11-21T09:16:56;99337.09;;;10.56;80.17
70314;BME280;71040;47.526;18.986;2023-11-21T09:21:56;99333.72;;;10.54;80.12
70314;BME280;71040;47.526;18.986;2023-11-21T09:26:57;99326.13;;;10.49;80.48
70314;BME280;71040;47.526;18.986;2023-11-21T09:31:57;99324.31;;;10.50;80.46
70314;BME280;71040;47.526;18.986;2023-11-21T09:37:01;99311.50;;;10.45;80.67
70314;BME280;71040;47.526;18.986;2023-11-21T09:42:11;99305.44;;;10.45;80.68
70314;BME280;71040;47.526;18.986;2023-11-21T09:47:15;99298.50;;;10.44;80.72
70314;BME280;71040;47.526;18.986;2023-11-21T09:52:26;99297.44;;;10.48;80.41
70314;BME280;71040;47.526;18.986;2023-11-21T09:57:27;99295.00;;;11.27;78.73
70314;BME280;71040;47.526;18.986;2023-11-21T10:02:28;99283.72;;;12.17;75.42
70314;BME280;71040;47.526;18.986;2023-11-21T10:07:31;99291.81;;;12.28;74.87
70314;BME280;71040;47.526;18.986;2023-11-21T10:12:37;99284.34;;;11.77;76.58
70314;BME280;71040;47.526;18.986;2023-11-21T10:17:40;99284.00;;;11.36;77.66
70314;BME280;71040;47.526;18.986;2023-11-21T10:22:45;99279.34;;;11.09;78.84
70314;BME280;71040;47.526;18.986;2023-11-21T10:27:49;99280.19;;;10.94;79.39
70314;BME280;71040;47.526;18.986;2023-11-21T10:32:58;99279.16;;;10.81;79.67
70314;BME280;71040;47.526;18.986;2023-11-21T10:38:00;99271.69;;;10.73;79.94
70314;BME280;71040;47.526;18.986;2023-11-21T10:43:07;99276.41;;;10.67;80.41
70314;BME280;71040;47.526;18.986;2023-11-21T10:48:16;99280.88;;;10.65;80.46
70314;BME280;71040;47.526;18.986;2023-11-21T10:53:17;99272.38;;;10.61;80.47
70314;BME280;71040;47.526;18.986;2023-11-21T10:58:19;99275.13;;;10.58;81.16
70314;BME280;71040;47.526;18.986;2023-11-21T11:03:19;99263.97;;;10.55;81.03
70314;BME280;71040;47.526;18.986;2023-11-21T11:08:21;99261.44;;;10.53;81.14
70314;BME280;71040;47.526;18.986;2023-11-21T11:13:26;99261.44;;;10.53;80.98
70314;BME280;71040;47.526;18.986;2023-11-21T11:18:29;99260.16;;;10.77;80.66
70314;BME280;71040;47.526;18.986;2023-11-21T11:23:49;99248.63;;;11.60;78.05
70314;BME280;71040;47.526;18.986;2023-11-21T11:29:23;99250.78;;;12.13;75.80
70314;BME280;71040;47.526;18.986;2023-11-21T11:34:30;99247.91;;;11.72;77.17
70314;BME280;71040;47.526;18.986;2023-11-21T11:39:35;99254.38;;;11.35;78.52
70314;BME280;71040;47.526;18.986;2023-11-21T11:50:08;99238.44;;;10.93;80.09
70314;BME280;71040;47.526;18.986;2023-11-21T11:55:21;99248.53;;;10.83;80.48
70314;BME280;71040;47.526;18.986;2023-11-21T12:00:33;99234.09;;;10.76;80.94
70314;BME280;71040;47.526;18.986;2023-11-21T12:05:37;99219.59;;;10.70;81.08
70314;BME280;71040;47.526;18.986;2023-11-21T12:10:45;99230.13;;;10.69;81.02
70314;BME280;71040;47.526;18.986;2023-11-21T12:15:46;99227.59;;;10.67;81.01
70314;BME280;71040;47.526;18.986;2023-11-21T12:20:48;99232.13;;;10.64;81.12
70314;BME280;71040;47.526;18.986;2023-11-21T12:25:50;99233.16;;;10.61;81.67
70314;BME280;71040;47.526;18.986;2023-11-21T12:30:51;99224.47;;;10.61;81.54
70314;BME280;71040;47.526;18.986;2023-11-21T12:35:51;99207.50;;;10.52;81.62
70314;BME280;71040;47.526;18.986;2023-11-21T12:40:53;99220.25;;;10.58;81.79
70314;BME280;71040;47.526;18.986;2023-11-21T12:46:15;99222.84;;;10.58;81.71
70314;BME280;71040;47.526;18.986;2023-11-21T12:51:17;99216.84;;;11.05;80.34
70314;BME280;71040;47.526;18.986;2023-11-21T12:56:21;99201.53;;;12.04;76.97
70314;BME280;71040;47.526;18.986;2023-11-21T13:01:25;99208.69;;;12.59;75.00
70314;BME280;71040;47.526;18.986;2023-11-21T13:06:28;99212.97;;;12.17;76.40
70314;BME280;71040;47.526;18.986;2023-11-21T13:11:37;99214.88;;;11.70;77.99
70314;BME280;71040;47.526;18.986;2023-11-21T13:16:37;99215.88;;;11.37;79.12
70314;BME280;71040;47.526;18.986;2023-11-21T13:21:46;99213.53;;;11.17;79.92
70314;BME280;71040;47.526;18.986;2023-11-21T13:26:46;99222.16;;;11.03;80.50
70314;BME280;71040;47.526;18.986;2023-11-21T13:31:47;99216.66;;;10.92;80.90
70314;BME280;71040;47.526;18.986;2023-11-21T13:36:50;99223.13;;;10.85;81.33
70314;BME280;71040;47.526;18.986;2023-11-21T13:41:58;99229.47;;;10.81;81.24
70314;BME280;71040;47.526;18.986;2023-11-21T13:46:58;99231.41;;;10.77;81.39
70314;BME280;71040;47.526;18.986;2023-11-21T13:51:59;99229.97;;;10.72;81.46
70314;BME280;71040;47.526;18.986;2023-11-21T13:57:00;99239.50;;;10.73;81.51
70314;BME280;71040;47.526;18.986;2023-11-21T14:02:03;99238.75;;;10.71;81.58
70314;BME280;71040;47.526;18.986;2023-11-21T14:07:17;99229.38;;;10.67;81.79
70314;BME280;71040;47.526;18.986;2023-11-21T14:12:29;99244.19;;;10.66;81.59
70314;BME280;71040;47.526;18.986;2023-11-21T14:17:34;99251.13;;;10.67;81.75
70314;BME280;71040;47.526;18.986;2023-11-21T14:22:35;99255.50;;;10.67;81.65
70314;BME280;71040;47.526;18.986;2023-11-21T14:27:36;99261.66;;;10.66;81.54
70314;BME280;71040;47.526;18.986;2023-11-21T14:32:43;99262.66;;;10.63;81.56
70314;BME280;71040;47.526;18.986;2023-11-21T14:37:43;99259.19;;;10.63;81.79
70314;BME280;71040;47.526;18.986;2023-11-21T14:42:44;99256.56;;;10.63;81.71
70314;BME280;71040;47.526;18.986;2023-11-21T14:47:47;99259.53;;;10.57;81.78
70314;BME280;71040;47.526;18.986;2023-11-21T14:53:05;99270.41;;;10.65;81.93
70314;BME280;71040;47.526;18.986;2023-11-21T14:58:06;99270.97;;;10.87;81.41
70314;BME280;71040;47.526;18.986;2023-11-21T15:03:12;99262.28;;;11.81;77.93
70314;BME280;71040;47.526;18.986;2023-11-21T15:08:33;99270.06;;;12.56;75.47
70314;BME280;71040;47.526;18.986;2023-11-21T15:13:33;99266.94;;;12.92;74.50
70314;BME280;71040;47.526;18.986;2023-11-21T15:18:33;99266.13;;;12.92;74.34
70314;BME280;71040;47.526;18.986;2023-11-21T15:23:35;99263.75;;;12.30;76.24
70314;BME280;71040;47.526;18.986;2023-11-21T15:28:36;99267.19;;;11.87;77.81
70314;BME280;71040;47.526;18.986;2023-11-21T15:33:36;99274.13;;;11.56;78.92
70314;BME280;71040;47.526;18.986;2023-11-21T15:38:37;99278.00;;;11.34;79.33
70314;BME280;71040;47.526;18.986;2023-11-21T15:43:37;99293.47;;;11.22;79.95
70314;BME280;71040;47.526;18.986;2023-11-21T15:48:38;99284.50;;;11.11;80.46
70314;BME280;71040;47.526;18.986;2023-11-21T15:53:44;99284.06;;;11.03;80.70
70314;BME280;71040;47.526;18.986;2023-11-21T15:58:51;99282.63;;;10.97;81.25
70314;BME280;71040;47.526;18.986;2023-11-21T16:03:52;99288.97;;;10.93;81.18
70314;BME280;71040;47.526;18.986;2023-11-21T16:08:53;99280.44;;;10.89;80.96
70314;BME280;71040;47.526;18.986;2023-11-21T16:13:54;99281.50;;;10.85;81.08
70314;BME280;71040;47.526;18.986;2023-11-21T16:18:54;99289.53;;;10.82;81.20
70314;BME280;71040;47.526;18.986;2023-11-21T16:23:55;99294.69;;;10.84;81.30
70314;BME280;71040;47.526;18.986;2023-11-21T16:28:55;99295.63;;;10.83;81.39
70314;BME280;71040;47.526;18.986;2023-11-21T16:33:56;99294.00;;;10.80;81.54
70314;BME280;71040;47.526;18.986;2023-11-21T16:38:56;99298.38;;;10.80;81.44
70314;BME280;71040;47.526;18.986;2023-11-21T16:43:59;99285.47;;;10.77;81.41
70314;BME280;71040;47.526;18.986;2023-11-21T16:48:59;99289.91;;;10.75;81.12
70314;BME280;71040;47.526;18.986;2023-11-21T16:53:59;99289.00;;;10.76;81.46
70314;BME280;71040;47.526;18.986;2023-11-21T16:59:02;99296.63;;;10.96;80.49
70314;BME280;71040;47.526;18.986;2023-11-21T17:04:12;99285.16;;;11.93;77.65
70314;BME280;71040;47.526;18.986;2023-11-21T17:09:26;99294.03;;;12.64;75.19
70314;BME280;71040;47.526;18.986;2023-11-21T17:14:29;99288.59;;;13.10;73.83
70314;BME280;71040;47.526;18.986;2023-11-21T17:19:29;99300.66;;;13.41;72.91
70314;BME280;71040;47.526;18.986;2023-11-21T17:24:34;99310.56;;;13.50;72.75
70314;BME280;71040;47.526;18.986;2023-11-21T17:29:36;99313.59;;;12.87;74.68
70314;BME280;71040;47.526;18.986;2023-11-21T17:34:38;99316.25;;;12.29;76.49
70314;BME280;71040;47.526;18.986;2023-11-21T17:39:39;99319.56;;;11.87;77.76
70314;BME280;71040;47.526;18.986;2023-11-21T17:44:40;99318.22;;;11.64;78.34
70314;BME280;71040;47.526;18.986;2023-11-21T17:49:40;99321.81;;;11.46;79.12
70314;BME280;71040;47.526;18.986;2023-11-21T17:54:43;99329.59;;;11.32;79.51
70314;BME280;71040;47.526;18.986;2023-11-21T17:59:43;99330.16;;;11.21;79.29
70314;BME280;71040;47.526;18.986;2023-11-21T18:04:47;99334.13;;;11.12;79.97
70314;BME280;71040;47.526;18.986;2023-11-21T18:09:47;99343.06;;;11.08;80.10
70314;BME280;71040;47.526;18.986;2023-11-21T18:14:49;99344.31;;;11.01;80.53
70314;BME280;71040;47.526;18.986;2023-11-21T18:19:51;99353.94;;;11.01;80.09
70314;BME280;71040;47.526;18.986;2023-11-21T18:24:54;99352.50;;;10.95;80.46
70314;BME280;71040;47.526;18.986;2023-11-21T18:29:55;99353.50;;;10.93;80.45
70314;BME280;71040;47.526;18.986;2023-11-21T18:34:56;99349.34;;;10.88;80.63
70314;BME280;71040;47.526;18.986;2023-11-21T18:39:56;99363.34;;;10.87;80.44
70314;BME280;71040;47.526;18.986;2023-11-21T18:44:57;99354.75;;;11.34;79.52
70314;BME280;71040;47.526;18.986;2023-11-21T18:49:57;99364.38;;;12.12;76.64
70314;BME280;71040;47.526;18.986;2023-11-21T18:54:58;99351.53;;;12.67;75.16
70314;BME280;71040;47.526;18.986;2023-11-21T18:59:59;99351.38;;;13.13;73.57
70314;BME280;71040;47.526;18.986;2023-11-21T19:05:02;99354.84;;;13.42;72.86
70314;BME280;71040;47.526;18.986;2023-11-21T19:10:06;99350.88;;;13.63;72.43
70314;BME280;71040;47.526;18.986;2023-11-21T19:15:07;99362.63;;;13.85;71.76
70314;BME280;71040;47.526;18.986;2023-11-21T19:20:13;99365.66;;;13.37;73.13
70314;BME280;71040;47.526;18.986;2023-11-21T19:25:14;99367.06;;;12.70;74.88
70314;BME280;71040;47.526;18.986;2023-11-21T19:30:15;99369.28;;;12.18;76.30
70314;BME280;71040;47.526;18.986;2023-11-21T19:35:16;99364.94;;;11.87;77.42
70314;BME280;71040;47.526;18.986;2023-11-21T19:40:16;99375.69;;;11.66;78.54
70314;BME280;71040;47.526;18.986;2023-11-21T19:45:23;99380.94;;;11.50;78.69
70314;BME280;71040;47.526;18.986;2023-11-21T19:50:25;99376.44;;;11.36;78.90
70314;BME280;71040;47.526;18.986;2023-11-21T19:55:25;99383.19;;;11.24;79.08
70314;BME280;71040;47.526;18.986;2023-11-21T20:00:26;99379.94;;;11.19;79.22
70314;BME280;71040;47.526;18.986;2023-11-21T20:05:29;99387.38;;;11.11;79.46
70314;BME280;71040;47.526;18.986;2023-11-21T20:10:30;99388.47;;;11.07;79.92
70314;BME280;71040;47.526;18.986;2023-11-21T20:15:30;99399.09;;;11.04;79.44
70314;BME280;71040;47.526;18.986;2023-11-21T20:20:31;99404.56;;;11.00;79.64
70314;BME280;71040;47.526;18.986;2023-11-21T20:25:34;99403.84;;;10.96;79.82
70314;BME280;71040;47.526;18.986;2023-11-21T20:30:35;99399.81;;;10.91;79.91
70314;BME280;71040;47.526;18.986;2023-11-21T20:35:35;99403.25;;;10.91;80.04
70314;BME280;71040;47.526;18.986;2023-11-21T20:40:37;99408.63;;;10.88;80.11
70314;BME280;71040;47.526;18.986;2023-11-21T20:45:40;99408.78;;;10.85;80.36
70314;BME280;71040;47.526;18.986;2023-11-21T20:50:41;99408.97;;;10.82;79.97
70314;BME280;71040;47.526;18.986;2023-11-21T20:55:43;99406.44;;;10.80;80.25
70314;BME280;71040;47.526;18.986;2023-11-21T21:00:49;99415.97;;;10.81;80.11
70314;BME280;71040;47.526;18.986;2023-11-21T21:05:49;99418.81;;;10.77;80.42
70314;BME280;71040;47.526;18.986;2023-11-21T21:10:49;99421.66;;;11.22;78.86
70314;BME280;71040;47.526;18.986;2023-11-21T21:15:50;99422.53;;;12.03;76.59
70314;BME280;71040;47.526;18.986;2023-11-21T21:20:50;99431.09;;;12.07;75.81
70314;BME280;71040;47.526;18.986;2023-11-21T21:25:51;99438.47;;;11.67;77.07
70314;BME280;71040;47.526;18.986;2023-11-21T21:30:53;99445.28;;;11.38;78.08
70314;BME280;71040;47.526;18.986;2023-11-21T21:35:54;99443.78;;;11.17;78.44
70314;BME280;71040;47.526;18.986;2023-11-21T21:40:54;99450.56;;;11.04;78.81
70314;BME280;71040;47.526;18.986;2023-11-21T21:45:55;99459.81;;;10.94;79.39
70314;BME280;71040;47.526;18.986;2023-11-21T21:50:56;99454.03;;;10.87;79.32
70314;BME280;71040;47.526;18.986;2023-11-21T21:55:56;99449.97;;;10.81;79.44
70314;BME280;71040;47.526;18.986;2023-11-21T22:00:57;99461.41;;;10.79;79.54
70314;BME280;71040;47.526;18.986;2023-11-21T22:05:58;99472.94;;;10.75;79.47
70314;BME280;71040;47.526;18.986;2023-11-21T22:10:58;99459.72;;;10.95;79.08
70314;BME280;71040;47.526;18.986;2023-11-21T22:15:58;99471.88;;;11.79;77.00
70314;BME280;71040;47.526;18.986;2023-11-21T22:20:59;99452.94;;;12.37;74.87
70314;BME280;71040;47.526;18.986;2023-11-21T22:25:59;99466.31;;;12.92;73.44
70314;BME280;71040;47.526;18.986;2023-11-21T22:31:00;99452.03;;;13.12;72.78
70314;BME280;71040;47.526;18.986;2023-11-21T22:36:00;99464.00;;;13.46;71.92
70314;BME280;71040;47.526;18.986;2023-11-21T22:41:00;99475.91;;;13.66;71.43
70314;BME280;71040;47.526;18.986;2023-11-21T22:46:03;99483.88;;;13.78;71.38
70314;BME280;71040;47.526;18.986;2023-11-21T22:51:04;99490.25;;;13.89;70.94
70314;BME280;71040;47.526;18.986;2023-11-21T22:56:09;99492.03;;;14.02;70.49
70314;BME280;71040;47.526;18.986;2023-11-21T23:01:10;99487.19;;;13.82;70.92
70314;BME280;71040;47.526;18.986;2023-11-21T23:06:16;99491.38;;;12.98;73.14
70314;BME280;71040;47.526;18.986;2023-11-21T23:11:19;99501.81;;;12.38;75.04
70314;BME280;71040;47.526;18.986;2023-11-21T23:16:21;99495.97;;;12.02;76.01
70314;BME280;71040;47.526;18.986;2023-11-21T23:21:21;99495.84;;;11.72;76.86
70314;BME280;71040;47.526;18.986;2023-11-21T23:26:22;99498.66;;;11.51;77.77
70314;BME280;71040;47.526;18.986;2023-11-21T23:31:22;99505.53;;;11.37;77.95
70314;BME280;71040;47.526;18.986;2023-11-21T23:36:22;99511.31;;;11.26;78.29
70314;BME280;71040;47.526;18.986;2023-11-21T23:41:24;99519.66;;;11.17;78.63
70314;BME280;71040;47.526;18.986;2023-11-21T23:46:24;99526.09;;;11.10;78.54
70314;BME280;71040;47.526;18.986;2023-11-21T23:51:27;99521.25;;;11.02;78.73
70314;BME280;71040;47.526;18.986;2023-11-21T23:56:27;99524.09;;;10.98;78.92
